LA HONDA (LAH)

Elevation: 425' · SAN GREGORIO CR basin · Operator: CAL FIRE

Query executed Friday at 4:08:31   clock

Provisional data, subject to change.
Select a sensor type for a plot of data.

Earlier

Date   /   Time   RAIN     TEMP     REL HUM     FUEL MS     FUEL TP     WIND SP     WIND DR     PEAK WS     PEAK WD     SOLAR R     BAT VOL    
(PST)INCHES   DEG F   %   %   DEG F   MPH   DEG   MPH   DEG   W/M^2   VOLTS  
03/05/2015 04:00 25.47 42 85 21 37 5 77 6 78 0.00 12.7
03/05/2015 05:00 25.47 43 85 22 38 5 82 6 77 0.00 12.7
03/05/2015 06:00 25.47 43 86 23 37 5 85 6 79 0.00 12.6
03/05/2015 07:00 25.47 44 84 23 39 5 76 6 75 7.00 12.7
03/05/2015 08:00 25.47 50 75 24 48 5 95 6 92 139.00 14.6
03/05/2015 09:00 25.47 62 59 23 58 3 224 5 69 336.00 14.2
03/05/2015 10:00 25.47 67 46 19 67 3 268 5 223 522.00 13.8
03/05/2015 11:00 25.47 69 37 18 73 3 198 7 238 665.00 13.8
03/05/2015 12:00 25.47 68 35 13 79 7 39 14 27 747.00 13.7
03/05/2015 13:00 25.47 71 34 11 71 4 335 12 25 766.00 13.7
03/05/2015 14:00 25.47 71 35 11 71 5 286 12 227 726.00 13.7
03/05/2015 15:00 25.47 72 35 10 82 4 269 10 238 622.00 13.6
03/05/2015 16:00 25.47 70 40 10 75 3 253 9 230 464.00 13.6
03/05/2015 17:00 25.47 68 37 9 69 2 278 6 216 275.00 14.0
03/05/2015 18:00 25.47 60 43 10 52 2 119 4 223 57.00 13.5
03/05/2015 19:00 25.47 57 49 10 48 4 104 7 105 1.00 13.3
03/05/2015 20:00 25.47 59 41 10 52 7 17 12 48 0.00 13.1
03/05/2015 21:00 25.47 57 48 10 49 2 164 14 107 0.00 13.0
03/05/2015 22:00 25.47 53 55 11 45 2 124 8 109 0.00 12.9
03/05/2015 23:00 25.47 52 55 11 44 4 102 8 105 0.00 12.8
03/06/2015 00:00 25.47 50 64 12 42 4 88 7 125 0.00 12.8
03/06/2015 01:00 25.47 49 62 13 41 4 77 7 83 0.00 12.7
03/06/2015 02:00 25.47 46 65 14 40 4 72 7 79 0.00 12.7
03/06/2015 03:00 25.47 46 71 15 39 5 62 8 31 0.00 12.7
03/06/2015 04:00 25.47 48 61 15 39 5 81 9 44 0.00 12.7

Later | Latest

Warning! This data is preliminary and subject to revision.

Show LAH Map | 24 Hours LAH Data | Plot all LAH Sensors | Daily LAH Data | LAH Info